createdAt,value
2019-03-19T00:00:07.784Z,1015.07
2019-03-19T00:01:07.780Z,1015.06
2019-03-19T00:02:07.798Z,1015.13
2019-03-19T00:03:07.756Z,1015.15
2019-03-19T00:04:07.744Z,1015.15
2019-03-19T00:05:07.740Z,1015.18
2019-03-19T00:06:07.726Z,1015.19
2019-03-19T00:07:07.732Z,1015.19
2019-03-19T00:08:07.706Z,1015.20
2019-03-19T00:09:07.751Z,1015.13
2019-03-19T00:10:07.688Z,1015.15
2019-03-19T00:11:07.666Z,1015.18
2019-03-19T00:12:07.681Z,1015.17
2019-03-19T00:13:07.656Z,1015.28
2019-03-19T00:14:07.692Z,1015.29
2019-03-19T00:15:07.628Z,1015.17
2019-03-19T00:16:07.612Z,1015.27
2019-03-19T00:17:07.738Z,1015.20
2019-03-19T00:18:07.601Z,1015.24
2019-03-19T00:19:07.588Z,1015.27
2019-03-19T00:20:07.583Z,1015.27
2019-03-19T00:21:07.567Z,1015.22
2019-03-19T00:22:07.567Z,1015.34
2019-03-19T00:23:07.544Z,1015.33
2019-03-19T00:24:07.545Z,1015.24
2019-03-19T00:25:07.530Z,1015.29
2019-03-19T00:26:07.522Z,1015.24
2019-03-19T00:27:07.533Z,1015.20
2019-03-19T00:28:07.491Z,1015.25
2019-03-19T00:29:07.484Z,1015.27
2019-03-19T00:30:07.476Z,1015.18
2019-03-19T00:31:07.461Z,1015.16
2019-03-19T00:32:07.459Z,1015.22
2019-03-19T00:33:07.437Z,1015.21
2019-03-19T00:34:07.421Z,1015.22
2019-03-19T00:35:07.412Z,1015.14
2019-03-19T00:36:07.451Z,1015.17
2019-03-19T00:37:07.411Z,1015.12
2019-03-19T00:38:07.379Z,1015.16
2019-03-19T00:39:07.382Z,1015.17
2019-03-19T00:40:07.365Z,1015.26
2019-03-19T00:41:07.352Z,1015.28
2019-03-19T00:42:07.372Z,1015.25
2019-03-19T00:43:07.339Z,1015.26
2019-03-19T00:44:07.323Z,1015.28
2019-03-19T00:45:07.310Z,1015.29
2019-03-19T00:46:07.301Z,1015.24
2019-03-19T00:47:07.327Z,1015.28
2019-03-19T00:48:07.275Z,1015.20
2019-03-19T00:49:07.277Z,1015.22
2019-03-19T00:50:07.262Z,1015.18
2019-03-19T00:51:07.239Z,1015.21
2019-03-19T00:52:07.232Z,1015.21
2019-03-19T00:53:07.241Z,1015.16
2019-03-19T00:54:07.220Z,1015.26
2019-03-19T00:55:07.230Z,1015.29
2019-03-19T00:56:07.196Z,1015.27
2019-03-19T00:57:07.182Z,1015.25
2019-03-19T00:58:07.184Z,1015.32
2019-03-19T00:59:07.219Z,1015.23
2019-03-19T01:00:07.153Z,1015.30
2019-03-19T01:01:07.149Z,1015.16
2019-03-19T01:02:07.124Z,1015.28
2019-03-19T01:03:07.135Z,1015.22
2019-03-19T01:04:07.109Z,1015.26
2019-03-19T01:05:07.157Z,1015.25
2019-03-19T01:06:07.097Z,1015.19
2019-03-19T01:07:07.073Z,1015.15
2019-03-19T01:08:07.089Z,1015.20
2019-03-19T01:09:07.055Z,1015.21
2019-03-19T01:10:07.078Z,1015.20
2019-03-19T01:11:07.037Z,1015.21
2019-03-19T01:12:07.026Z,1015.21
2019-03-19T01:13:07.040Z,1015.22
2019-03-19T01:14:06.996Z,1015.24
2019-03-19T01:15:06.990Z,1015.22
2019-03-19T01:16:07.028Z,1015.26
2019-03-19T01:17:06.964Z,1015.24
2019-03-19T01:18:06.966Z,1015.26
2019-03-19T01:19:06.949Z,1015.29
2019-03-19T01:20:06.932Z,1015.29
2019-03-19T01:21:06.939Z,1015.30
2019-03-19T01:22:06.913Z,1015.31
2019-03-19T01:23:06.925Z,1015.34
2019-03-19T01:24:06.902Z,1015.31
2019-03-19T01:25:06.932Z,1015.35
2019-03-19T01:26:06.872Z,1015.33
2019-03-19T01:27:06.861Z,1015.38
2019-03-19T01:28:06.869Z,1015.35
2019-03-19T01:29:06.839Z,1015.40
2019-03-19T01:30:06.836Z,1015.37
2019-03-19T01:31:06.825Z,1015.41
2019-03-19T01:32:06.806Z,1015.40
2019-03-19T01:33:06.815Z,1015.44
2019-03-19T01:34:06.787Z,1015.41
2019-03-19T01:35:06.820Z,1015.45
2019-03-19T01:36:06.766Z,1015.40
2019-03-19T01:37:06.760Z,1015.48
2019-03-19T01:38:06.767Z,1015.56
2019-03-19T01:39:06.736Z,1015.58
2019-03-19T01:40:06.725Z,1015.55
2019-03-19T01:41:06.718Z,1015.55
2019-03-19T01:42:06.711Z,1015.53
2019-03-19T01:43:06.711Z,1015.58
2019-03-19T01:44:06.685Z,1015.60
2019-03-19T01:45:06.665Z,1015.55
2019-03-19T01:46:06.669Z,1015.58
2019-03-19T01:47:06.697Z,1015.65
2019-03-19T01:48:06.658Z,1015.57
2019-03-19T01:49:06.629Z,1015.53
2019-03-19T01:50:06.629Z,1015.59
2019-03-19T01:51:06.601Z,1015.62
2019-03-19T01:52:06.597Z,1015.65
2019-03-19T01:53:06.610Z,1015.67
2019-03-19T01:54:06.577Z,1015.63
2019-03-19T01:55:06.666Z,1015.67
2019-03-19T01:56:06.551Z,1015.62
2019-03-19T01:57:06.541Z,1015.70
2019-03-19T01:58:06.597Z,1015.66
2019-03-19T01:59:06.533Z,1015.72
2019-03-19T02:00:06.505Z,1015.72
2019-03-19T02:01:06.503Z,1015.72
2019-03-19T02:02:06.490Z,1015.77
2019-03-19T02:03:06.489Z,1015.81
2019-03-19T02:04:06.481Z,1015.75
2019-03-19T02:05:06.453Z,1015.87
2019-03-19T02:06:06.441Z,1015.88
2019-03-19T02:07:06.438Z,1015.86
2019-03-19T02:08:06.437Z,1015.86
2019-03-19T02:09:06.413Z,1015.89
2019-03-19T02:10:06.405Z,1015.95
2019-03-19T02:11:06.395Z,1015.96
2019-03-19T02:12:06.400Z,1015.95
2019-03-19T02:13:06.453Z,1015.98
2019-03-19T02:14:06.364Z,1015.92
2019-03-19T02:15:06.351Z,1015.91
2019-03-19T02:16:06.355Z,1015.91
2019-03-19T02:17:06.332Z,1015.90
2019-03-19T02:18:06.347Z,1015.88
2019-03-19T02:19:06.307Z,1015.93
2019-03-19T02:20:06.306Z,1015.94
2019-03-19T02:21:06.321Z,1015.89
2019-03-19T02:22:06.288Z,1015.98
2019-03-19T02:23:06.284Z,1015.95
2019-03-19T02:24:06.259Z,1016.03
2019-03-19T02:25:06.255Z,1016.07
2019-03-19T02:26:16.074Z,1016.00
2019-03-19T02:27:07.219Z,1016.02
2019-03-19T02:28:06.223Z,1016.05
2019-03-19T02:29:06.241Z,1016.10
2019-03-19T02:30:06.235Z,1016.12
2019-03-19T02:31:06.182Z,1016.13
2019-03-19T02:32:06.173Z,1016.14
2019-03-19T02:33:06.331Z,1016.11
2019-03-19T02:34:06.158Z,1016.20
2019-03-19T02:35:06.136Z,1016.10
2019-03-19T02:36:06.142Z,1016.17
2019-03-19T02:37:06.180Z,1016.18
2019-03-19T02:38:06.133Z,1016.14
2019-03-19T02:39:06.131Z,1016.18
2019-03-19T02:40:06.091Z,1016.20
2019-03-19T02:41:06.133Z,1016.18
2019-03-19T02:42:06.079Z,1016.14
2019-03-19T02:43:06.080Z,1016.18
2019-03-19T02:44:06.039Z,1016.15
2019-03-19T02:45:06.042Z,1016.15
2019-03-19T02:46:06.049Z,1016.16
2019-03-19T02:47:06.027Z,1016.19
2019-03-19T02:48:06.041Z,1016.17
2019-03-19T02:49:06.127Z,1016.18
2019-03-19T02:50:05.977Z,1016.18
2019-03-19T02:51:06.035Z,1016.24
2019-03-19T02:52:05.963Z,1016.19
2019-03-19T02:53:05.968Z,1016.24
2019-03-19T02:54:05.949Z,1016.32
2019-03-19T02:55:05.948Z,1016.26
2019-03-19T02:56:05.921Z,1016.26
2019-03-19T02:57:05.944Z,1016.37
2019-03-19T02:58:05.913Z,1016.28
2019-03-19T02:59:05.898Z,1016.36
2019-03-19T03:00:05.887Z,1016.30
2019-03-19T03:01:05.868Z,1016.39
2019-03-19T03:02:05.855Z,1016.44
2019-03-19T03:03:05.862Z,1016.46
2019-03-19T03:04:05.887Z,1016.45
2019-03-19T03:05:05.824Z,1016.39
2019-03-19T03:06:05.817Z,1016.43
2019-03-19T03:07:05.796Z,1016.42
2019-03-19T03:08:05.814Z,1016.47
2019-03-19T03:09:05.777Z,1016.36
2019-03-19T03:10:05.865Z,1016.43
2019-03-19T03:11:05.756Z,1016.46
2019-03-19T03:12:05.788Z,1016.43
2019-03-19T03:13:05.759Z,1016.43
2019-03-19T03:14:05.727Z,1016.49
2019-03-19T03:15:05.734Z,1016.49
2019-03-19T03:16:05.709Z,1016.50
2019-03-19T03:17:05.693Z,1016.54
2019-03-19T03:18:05.703Z,1016.63
2019-03-19T03:19:05.674Z,1016.59
2019-03-19T03:20:05.716Z,1016.51
2019-03-19T03:21:05.660Z,1016.55
2019-03-19T03:22:05.645Z,1016.59
2019-03-19T03:23:05.646Z,1016.57
2019-03-19T03:24:05.621Z,1016.59
2019-03-19T03:25:05.617Z,1016.60
2019-03-19T03:26:05.599Z,1016.57
2019-03-19T03:27:05.651Z,1016.64
2019-03-19T03:28:05.643Z,1016.67
2019-03-19T03:29:05.588Z,1016.66
2019-03-19T03:30:05.561Z,1016.57
2019-03-19T03:31:05.550Z,1016.64
2019-03-19T03:32:05.600Z,1016.64
2019-03-19T03:33:05.561Z,1016.64
2019-03-19T03:34:05.526Z,1016.70
2019-03-19T03:35:05.506Z,1016.64
2019-03-19T03:36:05.510Z,1016.70
2019-03-19T03:37:05.501Z,1016.66
2019-03-19T03:38:05.502Z,1016.64
2019-03-19T03:39:05.463Z,1016.70
2019-03-19T03:40:05.455Z,1016.75
2019-03-19T03:41:05.448Z,1016.77
2019-03-19T03:42:05.432Z,1016.67
2019-03-19T03:43:05.439Z,1016.78
2019-03-19T03:44:05.420Z,1016.74
2019-03-19T03:45:05.401Z,1016.70
2019-03-19T03:46:05.384Z,1016.75
2019-03-19T03:47:05.374Z,1016.72
2019-03-19T03:48:05.405Z,1016.74
2019-03-19T03:49:05.381Z,1016.71
2019-03-19T03:50:05.341Z,1016.68
2019-03-19T03:51:05.333Z,1016.74
2019-03-19T03:52:05.322Z,1016.69
2019-03-19T03:53:05.313Z,1016.69
2019-03-19T03:54:05.313Z,1016.77
2019-03-19T03:55:05.286Z,1016.74
2019-03-19T03:56:05.276Z,1016.80
2019-03-19T03:57:05.305Z,1016.77
2019-03-19T03:58:05.263Z,1016.91
2019-03-19T03:59:05.271Z,1016.92
2019-03-19T04:00:05.248Z,1016.94
2019-03-19T04:01:05.247Z,1016.93
2019-03-19T04:02:05.225Z,1017.00
2019-03-19T04:03:05.219Z,1016.99
2019-03-19T04:04:05.218Z,1017.03
2019-03-19T04:05:05.192Z,1017.07
2019-03-19T04:06:05.168Z,1017.02
2019-03-19T04:07:05.163Z,1017.09
2019-03-19T04:08:05.208Z,1017.03
2019-03-19T04:09:05.161Z,1017.11
2019-03-19T04:10:05.139Z,1017.10
2019-03-19T04:11:05.121Z,1017.07
2019-03-19T04:12:05.117Z,1017.16
2019-03-19T04:13:05.140Z,1017.18
2019-03-19T04:14:05.111Z,1017.15
2019-03-19T04:15:05.249Z,1017.18
2019-03-19T04:16:05.067Z,1017.28
2019-03-19T04:17:05.059Z,1017.17
2019-03-19T04:18:05.055Z,1017.30
2019-03-19T04:19:05.128Z,1017.31
2019-03-19T04:20:05.029Z,1017.34
2019-03-19T04:21:05.021Z,1017.33
2019-03-19T04:22:05.005Z,1017.30
2019-03-19T04:23:04.989Z,1017.27
2019-03-19T04:24:05.035Z,1017.33
2019-03-19T04:25:04.984Z,1017.32
2019-03-19T04:26:04.975Z,1017.29
2019-03-19T04:27:15.376Z,1017.29
2019-03-19T04:28:05.952Z,1017.31
2019-03-19T04:29:04.956Z,1017.33
2019-03-19T04:30:04.925Z,1017.35
2019-03-19T04:31:04.907Z,1017.43
2019-03-19T04:32:04.963Z,1017.39
2019-03-19T04:33:04.884Z,1017.38
2019-03-19T04:34:04.893Z,1017.39
2019-03-19T04:35:04.859Z,1017.42
2019-03-19T04:36:04.860Z,1017.40
2019-03-19T04:37:04.851Z,1017.46
2019-03-19T04:38:04.842Z,1017.45
2019-03-19T04:39:04.841Z,1017.47
2019-03-19T04:40:04.805Z,1017.48
2019-03-19T04:41:04.796Z,1017.49
2019-03-19T04:42:04.791Z,1017.53
2019-03-19T04:43:04.831Z,1017.51
2019-03-19T04:44:04.796Z,1017.50
2019-03-19T04:45:04.770Z,1017.50
2019-03-19T04:46:04.751Z,1017.49
2019-03-19T04:47:04.763Z,1017.49
2019-03-19T04:48:04.735Z,1017.50
2019-03-19T04:49:04.747Z,1017.50
2019-03-19T04:50:04.743Z,1017.56
2019-03-19T04:51:04.691Z,1017.52
2019-03-19T04:52:04.686Z,1017.53
2019-03-19T04:53:04.681Z,1017.55
2019-03-19T04:54:04.682Z,1017.54
2019-03-19T04:55:04.705Z,1017.62
2019-03-19T04:56:04.648Z,1017.61
2019-03-19T04:57:04.629Z,1017.56
2019-03-19T04:58:04.626Z,1017.62
2019-03-19T04:59:04.632Z,1017.56
2019-03-19T05:00:04.602Z,1017.61
2019-03-19T05:01:04.587Z,1017.62
2019-03-19T05:02:04.586Z,1017.57
2019-03-19T05:03:04.573Z,1017.59
2019-03-19T05:04:04.573Z,1017.62
2019-03-19T05:05:04.544Z,1017.61
2019-03-19T05:06:04.541Z,1017.60
2019-03-19T05:07:04.522Z,1017.61
2019-03-19T05:08:04.533Z,1017.63
2019-03-19T05:09:04.517Z,1017.76
2019-03-19T05:10:04.491Z,1017.72
2019-03-19T05:11:04.481Z,1017.74
2019-03-19T05:12:04.467Z,1017.75
2019-03-19T05:13:04.459Z,1017.78
2019-03-19T05:14:04.465Z,1017.77
2019-03-19T05:15:04.500Z,1017.78
2019-03-19T05:16:04.435Z,1017.83
2019-03-19T05:17:04.425Z,1017.88
2019-03-19T05:18:04.418Z,1017.88
2019-03-19T05:19:04.421Z,1017.90
2019-03-19T05:20:04.381Z,1017.95
2019-03-19T05:21:04.376Z,1017.93
2019-03-19T05:22:04.362Z,1017.98
2019-03-19T05:23:04.353Z,1018.05
2019-03-19T05:24:04.358Z,1018.10
2019-03-19T05:25:04.397Z,1018.12
2019-03-19T05:26:04.334Z,1018.16
2019-03-19T05:27:04.313Z,1018.21
2019-03-19T05:28:04.298Z,1018.21
2019-03-19T05:29:04.307Z,1018.26
2019-03-19T05:30:04.296Z,1018.29
2019-03-19T05:31:04.272Z,1018.26
2019-03-19T05:32:04.263Z,1018.28
2019-03-19T05:33:04.250Z,1018.31
2019-03-19T05:34:04.258Z,1018.37
2019-03-19T05:35:04.224Z,1018.29
2019-03-19T05:36:04.218Z,1018.35
2019-03-19T05:37:04.230Z,1018.32
2019-03-19T05:38:04.208Z,1018.40
2019-03-19T05:39:04.196Z,1018.31
2019-03-19T05:40:04.170Z,1018.31
2019-03-19T05:41:04.174Z,1018.36
2019-03-19T05:42:04.160Z,1018.39
2019-03-19T05:43:04.142Z,1018.40
2019-03-19T05:44:04.149Z,1018.46
2019-03-19T05:45:04.168Z,1018.47
2019-03-19T05:46:04.115Z,1018.53
2019-03-19T05:47:04.112Z,1018.52
2019-03-19T05:48:04.092Z,1018.55
2019-03-19T05:49:04.101Z,1018.58
2019-03-19T05:50:04.064Z,1018.62
2019-03-19T05:51:04.058Z,1018.60
2019-03-19T05:52:04.151Z,1018.58
2019-03-19T05:53:04.038Z,1018.53
2019-03-19T05:54:04.045Z,1018.59
2019-03-19T05:55:04.087Z,1018.58
2019-03-19T05:56:04.006Z,1018.60
2019-03-19T05:57:04.001Z,1018.58
2019-03-19T05:58:03.988Z,1018.61
2019-03-19T05:59:03.994Z,1018.60
2019-03-19T06:00:03.956Z,1018.63
2019-03-19T06:01:03.957Z,1018.69
2019-03-19T06:02:03.938Z,1018.66
2019-03-19T06:03:03.941Z,1018.70
2019-03-19T06:04:03.941Z,1018.69
2019-03-19T06:05:03.906Z,1018.77
2019-03-19T06:06:03.893Z,1018.76
2019-03-19T06:07:03.891Z,1018.74
2019-03-19T06:08:03.879Z,1018.80
2019-03-19T06:09:03.925Z,1018.81
2019-03-19T06:10:03.853Z,1018.83
2019-03-19T06:11:03.844Z,1018.86
2019-03-19T06:12:03.832Z,1018.85
2019-03-19T06:13:03.831Z,1018.91
2019-03-19T06:14:03.823Z,1018.83
2019-03-19T06:15:03.805Z,1018.82
2019-03-19T06:16:03.794Z,1018.87
2019-03-19T06:17:03.778Z,1018.91
2019-03-19T06:18:03.763Z,1018.92
2019-03-19T06:19:03.775Z,1018.92
2019-03-19T06:20:03.773Z,1018.95
2019-03-19T06:21:03.739Z,1018.94
2019-03-19T06:22:03.783Z,1018.99
2019-03-19T06:23:03.717Z,1018.97
2019-03-19T06:24:03.731Z,1019.02
2019-03-19T06:25:03.695Z,1019.03
2019-03-19T06:26:03.715Z,1019.09
2019-03-19T06:27:03.672Z,1019.08
2019-03-19T06:28:03.659Z,1019.09
2019-03-19T06:29:03.664Z,1019.04
2019-03-19T06:30:03.705Z,1019.13
2019-03-19T06:31:03.644Z,1019.19
2019-03-19T06:32:03.614Z,1019.20
2019-03-19T06:33:03.619Z,1019.17
2019-03-19T06:34:03.618Z,1019.19
2019-03-19T06:35:03.581Z,1019.20
2019-03-19T06:36:03.587Z,1019.29
2019-03-19T06:37:03.562Z,1019.28
2019-03-19T06:38:03.554Z,1019.24
2019-03-19T06:39:03.538Z,1019.33
2019-03-19T06:40:03.546Z,1019.32
2019-03-19T06:41:03.531Z,1019.37
2019-03-19T06:42:03.522Z,1019.30
2019-03-19T06:43:03.515Z,1019.44
2019-03-19T06:44:03.505Z,1019.42
2019-03-19T06:45:03.495Z,1019.36
2019-03-19T06:46:03.469Z,1019.41
2019-03-19T06:47:03.461Z,1019.37
2019-03-19T06:48:03.444Z,1019.34
2019-03-19T06:49:03.438Z,1019.40
2019-03-19T06:50:03.462Z,1019.27
2019-03-19T06:51:03.420Z,1019.38
2019-03-19T06:52:03.403Z,1019.37
2019-03-19T06:53:03.390Z,1019.32
2019-03-19T06:54:03.384Z,1019.34
2019-03-19T06:55:03.383Z,1019.38
2019-03-19T06:56:03.363Z,1019.38
2019-03-19T06:57:03.362Z,1019.30
2019-03-19T06:58:11.077Z,1019.36
2019-03-19T06:59:04.330Z,1019.38
2019-03-19T07:00:03.334Z,1019.33
2019-03-19T07:01:03.304Z,1019.35
2019-03-19T07:02:03.293Z,1019.38
2019-03-19T07:03:03.298Z,1019.35
2019-03-19T07:04:03.280Z,1019.50
2019-03-19T07:05:03.279Z,1019.43
2019-03-19T07:06:03.253Z,1019.38
2019-03-19T07:07:03.249Z,1019.45
2019-03-19T07:08:03.234Z,1019.41
2019-03-19T07:09:03.219Z,1019.50
2019-03-19T07:10:03.242Z,1019.45
2019-03-19T07:11:03.201Z,1019.58
2019-03-19T07:12:03.242Z,1019.56
2019-03-19T07:13:03.186Z,1019.57
2019-03-19T07:14:03.178Z,1019.57
2019-03-19T07:15:03.190Z,1019.61
2019-03-19T07:16:03.199Z,1019.59
2019-03-19T07:17:03.143Z,1019.57
2019-03-19T07:18:03.128Z,1019.61
2019-03-19T07:19:03.125Z,1019.48
2019-03-19T07:20:03.118Z,1019.53
2019-03-19T07:21:03.102Z,1019.56
2019-03-19T07:22:03.086Z,1019.59
2019-03-19T07:23:03.076Z,1019.88
2019-03-19T07:24:03.078Z,1020.20
2019-03-19T07:25:03.205Z,1020.25
2019-03-19T07:26:03.050Z,1020.28
2019-03-19T07:27:03.031Z,1020.31
2019-03-19T07:28:03.061Z,1020.31
2019-03-19T07:29:03.003Z,1019.87
2019-03-19T07:30:03.010Z,1020.32
2019-03-19T07:31:03.041Z,1020.39
2019-03-19T07:32:02.987Z,1020.31
2019-03-19T07:33:02.965Z,1020.38
2019-03-19T07:34:02.952Z,1020.46
2019-03-19T07:35:02.960Z,1020.43
2019-03-19T07:36:02.931Z,1020.44
2019-03-19T07:37:03.028Z,1020.53
2019-03-19T07:38:02.923Z,1020.41
2019-03-19T07:39:02.899Z,1020.06
2019-03-19T07:40:02.974Z,1019.91
2019-03-19T07:41:02.882Z,1020.30
2019-03-19T07:42:02.880Z,1020.30
2019-03-19T07:43:02.860Z,1020.09
2019-03-19T07:44:02.846Z,1020.06
2019-03-19T07:45:02.847Z,1020.33
2019-03-19T07:46:02.828Z,1020.72
2019-03-19T07:47:02.844Z,1020.07
2019-03-19T07:48:02.807Z,1020.07
2019-03-19T07:49:02.823Z,1020.13
2019-03-19T07:50:02.806Z,1020.17
2019-03-19T07:51:02.787Z,1020.21
2019-03-19T07:52:02.770Z,1020.11
2019-03-19T07:53:02.744Z,1020.09
2019-03-19T07:54:02.770Z,1020.15
2019-03-19T07:55:02.743Z,1020.06
2019-03-19T07:56:02.722Z,1020.18
2019-03-19T07:57:02.711Z,1020.22
2019-03-19T07:58:02.696Z,1020.43
2019-03-19T07:59:02.689Z,1020.46
2019-03-19T08:00:02.737Z,1020.28
2019-03-19T08:01:02.839Z,1020.27
2019-03-19T08:02:02.647Z,1020.25
2019-03-19T08:03:02.636Z,1020.31
2019-03-19T08:04:04.933Z,1020.41
2019-03-19T08:05:02.628Z,1020.37
2019-03-19T08:06:02.633Z,1020.60
2019-03-19T08:07:02.609Z,1020.37
2019-03-19T08:08:02.584Z,1020.29
2019-03-19T08:09:02.606Z,1020.28
2019-03-19T08:10:02.573Z,1020.27
2019-03-19T08:11:02.570Z,1020.77
2019-03-19T08:12:02.549Z,1020.96
2019-03-19T08:13:02.554Z,1020.55
2019-03-19T08:14:02.581Z,1020.42
2019-03-19T08:15:02.516Z,1020.41
2019-03-19T08:16:02.514Z,1020.42
2019-03-19T08:17:02.492Z,1020.39
2019-03-19T08:18:02.535Z,1020.55
2019-03-19T08:19:02.483Z,1020.80
2019-03-19T08:20:02.455Z,1020.43
2019-03-19T08:21:02.476Z,1020.42
2019-03-19T08:22:02.444Z,1020.43
2019-03-19T08:23:02.471Z,1020.47
2019-03-19T08:24:02.416Z,1020.40
2019-03-19T08:25:02.401Z,1020.39
2019-03-19T08:26:02.424Z,1020.47
2019-03-19T08:27:02.382Z,1020.51
2019-03-19T08:28:02.366Z,1020.53
2019-03-19T08:29:02.380Z,1020.91
2019-03-19T08:30:02.412Z,1020.60
2019-03-19T08:31:02.345Z,1020.64
2019-03-19T08:32:02.330Z,1020.61
2019-03-19T08:33:02.316Z,1020.63
2019-03-19T08:34:02.312Z,1020.63
2019-03-19T08:35:02.299Z,1020.98
2019-03-19T08:36:09.377Z,1020.68
2019-03-19T08:37:03.267Z,1020.72
2019-03-19T08:38:02.261Z,1020.91
2019-03-19T08:39:02.252Z,1020.86
2019-03-19T08:40:02.242Z,1020.89
2019-03-19T08:41:02.263Z,1020.74
2019-03-19T08:42:02.244Z,1020.67
2019-03-19T08:43:02.220Z,1020.76
2019-03-19T08:44:02.197Z,1020.82
2019-03-19T08:45:02.192Z,1020.84
2019-03-19T08:46:02.197Z,1020.79
2019-03-19T08:47:02.171Z,1020.67
2019-03-19T08:48:02.146Z,1020.75
2019-03-19T08:49:02.140Z,1020.76
2019-03-19T08:50:02.129Z,1020.83
2019-03-19T08:51:02.199Z,1020.80
2019-03-19T08:52:02.127Z,1020.72
2019-03-19T08:53:02.098Z,1020.70
2019-03-19T08:54:02.095Z,1020.73
2019-03-19T08:55:02.090Z,1020.70
2019-03-19T08:56:02.096Z,1020.75
2019-03-19T08:57:02.052Z,1020.68
2019-03-19T08:58:02.064Z,1020.75
2019-03-19T08:59:05.855Z,1020.81
2019-03-19T09:00:02.046Z,1020.88
2019-03-19T09:01:02.015Z,1020.79
2019-03-19T09:02:02.027Z,1020.80
2019-03-19T09:03:02.005Z,1020.73
2019-03-19T09:04:02.004Z,1020.71
2019-03-19T09:05:03.089Z,1020.63
2019-03-19T09:06:01.953Z,1020.78
2019-03-19T09:07:01.966Z,1020.85
2019-03-19T09:08:01.946Z,1020.81
2019-03-19T09:09:01.960Z,1020.92
2019-03-19T09:10:01.919Z,1020.96
2019-03-19T09:11:01.910Z,1021.00
2019-03-19T09:12:01.923Z,1021.09
2019-03-19T09:13:01.880Z,1020.89
2019-03-19T09:14:01.871Z,1021.04
2019-03-19T09:15:01.858Z,1021.09
2019-03-19T09:16:01.847Z,1020.89
2019-03-19T09:17:01.865Z,1020.89
2019-03-19T09:18:01.832Z,1020.86
2019-03-19T09:19:01.823Z,1021.23
2019-03-19T09:20:01.805Z,1021.12
2019-03-19T09:21:01.797Z,1020.85
2019-03-19T09:22:01.797Z,1020.90
2019-03-19T09:23:01.777Z,1021.04
2019-03-19T09:24:01.765Z,1021.08
2019-03-19T09:25:01.758Z,1021.08
2019-03-19T09:26:01.763Z,1020.97
2019-03-19T09:27:01.787Z,1021.07
2019-03-19T09:28:01.721Z,1021.14
2019-03-19T09:29:01.718Z,1020.91
2019-03-19T09:30:01.741Z,1020.93
2019-03-19T09:31:01.697Z,1020.89
2019-03-19T09:32:01.678Z,1021.19
2019-03-19T09:33:01.689Z,1020.94
2019-03-19T09:34:01.656Z,1020.92
2019-03-19T09:35:01.655Z,1021.01
2019-03-19T09:36:01.666Z,1021.01
2019-03-19T09:37:01.638Z,1021.21
2019-03-19T09:38:01.650Z,1021.04
2019-03-19T09:39:01.603Z,1021.18
2019-03-19T09:40:01.608Z,1021.14
2019-03-19T09:41:01.581Z,1021.05
2019-03-19T09:42:01.574Z,1021.03
2019-03-19T09:43:01.576Z,1020.99
2019-03-19T09:44:01.619Z,1021.00
2019-03-19T09:45:01.548Z,1021.02
2019-03-19T09:46:01.521Z,1021.03
2019-03-19T09:47:01.538Z,1021.03
2019-03-19T09:48:01.536Z,1020.94
2019-03-19T09:49:01.494Z,1020.97
2019-03-19T09:50:01.487Z,1020.92
2019-03-19T09:51:01.540Z,1020.95
2019-03-19T09:52:01.470Z,1021.13
2019-03-19T09:53:01.484Z,1021.07
2019-03-19T09:54:01.454Z,1020.99
2019-03-19T09:55:01.430Z,1021.05
2019-03-19T09:56:01.438Z,1021.14
2019-03-19T09:57:01.404Z,1021.12
2019-03-19T09:58:01.392Z,1021.43
2019-03-19T09:59:01.450Z,1021.51
2019-03-19T10:00:01.384Z,1021.56
2019-03-19T10:01:01.366Z,1021.66
2019-03-19T10:02:01.368Z,1021.13
2019-03-19T10:03:01.344Z,1021.45
2019-03-19T10:04:01.352Z,1021.39
2019-03-19T10:05:01.318Z,1021.25
2019-03-19T10:06:13.375Z,1021.36
2019-03-19T10:07:06.292Z,1021.29
2019-03-19T10:08:01.289Z,1021.18
2019-03-19T10:09:01.304Z,1021.23
2019-03-19T10:10:01.266Z,1021.23
2019-03-19T10:11:01.256Z,1021.55
2019-03-19T10:12:01.248Z,1021.25
2019-03-19T10:13:01.256Z,1021.20
2019-03-19T10:14:01.251Z,1021.30
2019-03-19T10:15:01.224Z,1021.29
2019-03-19T10:16:01.211Z,1021.29
2019-03-19T10:17:01.196Z,1021.26
2019-03-19T10:18:01.196Z,1021.30
2019-03-19T10:19:01.193Z,1021.28
2019-03-19T10:20:01.156Z,1021.25
2019-03-19T10:21:01.152Z,1021.30
2019-03-19T10:22:01.150Z,1021.29
2019-03-19T10:23:01.123Z,1021.33
2019-03-19T10:24:01.135Z,1021.32
2019-03-19T10:25:01.102Z,1021.34
2019-03-19T10:26:01.091Z,1021.34
2019-03-19T10:27:01.092Z,1021.32
2019-03-19T10:28:01.086Z,1021.31
2019-03-19T10:29:01.092Z,1021.37
2019-03-19T10:30:01.057Z,1021.37
2019-03-19T10:31:01.041Z,1021.48
2019-03-19T10:32:01.029Z,1021.42
2019-03-19T10:33:01.017Z,1021.37
2019-03-19T10:34:01.076Z,1021.39
2019-03-19T10:35:01.016Z,1021.31
2019-03-19T10:36:01.027Z,1021.35
2019-03-19T10:37:00.983Z,1021.30
2019-03-19T10:38:00.965Z,1021.33
2019-03-19T10:39:00.963Z,1021.29
2019-03-19T10:40:00.968Z,1021.36
2019-03-19T10:41:00.934Z,1021.36
2019-03-19T10:42:00.931Z,1021.35
2019-03-19T10:43:00.913Z,1021.66
2019-03-19T10:44:00.898Z,1021.59
2019-03-19T10:45:00.961Z,1021.61
2019-03-19T10:46:00.880Z,1021.68
2019-03-19T10:47:00.864Z,1021.81
2019-03-19T10:48:00.854Z,1021.90
2019-03-19T10:49:00.843Z,1021.60
2019-03-19T10:50:00.877Z,1021.53
2019-03-19T10:51:00.824Z,1021.45
2019-03-19T10:52:00.818Z,1021.42
2019-03-19T10:53:00.837Z,1021.43
2019-03-19T10:54:00.804Z,1021.44
2019-03-19T10:55:00.792Z,1021.45
2019-03-19T10:56:00.772Z,1021.41
2019-03-19T10:57:00.767Z,1021.46
2019-03-19T10:58:10.585Z,1021.49
2019-03-19T10:59:01.740Z,1021.52
2019-03-19T11:00:00.764Z,1021.49
2019-03-19T11:01:00.712Z,1021.44
2019-03-19T11:02:00.760Z,1021.45
2019-03-19T11:03:00.698Z,1021.36
2019-03-19T11:04:00.682Z,1021.38
2019-03-19T11:05:00.684Z,1021.44
2019-03-19T11:06:00.676Z,1021.43
2019-03-19T11:07:00.656Z,1021.51
2019-03-19T11:08:00.640Z,1021.63
2019-03-19T11:09:00.628Z,1021.64
2019-03-19T11:10:00.617Z,1021.64
2019-03-19T11:11:00.647Z,1021.52
2019-03-19T11:12:00.674Z,1021.54
2019-03-19T11:13:00.598Z,1021.67
2019-03-19T11:14:00.653Z,1021.72
2019-03-19T11:15:00.585Z,1021.75
2019-03-19T11:16:00.570Z,1021.60
2019-03-19T11:17:00.567Z,1021.77
2019-03-19T11:18:00.547Z,1021.69
2019-03-19T11:19:00.530Z,1021.77
2019-03-19T11:20:00.514Z,1021.69
2019-03-19T11:21:00.524Z,1021.65
2019-03-19T11:22:00.496Z,1021.63
2019-03-19T11:23:00.492Z,1021.52
2019-03-19T11:24:00.483Z,1021.49
2019-03-19T11:25:00.515Z,1021.55
2019-03-19T11:26:00.473Z,1021.51
2019-03-19T11:27:00.439Z,1021.53
2019-03-19T11:28:00.425Z,1021.57
2019-03-19T11:29:00.419Z,1021.53
2019-03-19T11:30:00.538Z,1021.53
2019-03-19T11:31:00.490Z,1021.47
2019-03-19T11:32:00.398Z,1021.54
2019-03-19T11:33:00.394Z,1021.51
2019-03-19T11:34:00.373Z,1021.52
2019-03-19T11:35:00.470Z,1021.83
2019-03-19T11:36:00.407Z,1021.63
2019-03-19T11:37:00.325Z,1021.70
2019-03-19T11:38:00.328Z,1022.35
2019-03-19T11:39:00.319Z,1022.43
2019-03-19T11:40:00.363Z,1022.41
2019-03-19T11:41:00.294Z,1021.87
2019-03-19T11:42:00.285Z,1021.89
2019-03-19T11:43:00.263Z,1021.72
2019-03-19T11:44:00.255Z,1021.80
2019-03-19T11:45:00.239Z,1021.69
2019-03-19T11:46:00.235Z,1021.75
2019-03-19T11:47:00.235Z,1021.62
2019-03-19T11:48:00.211Z,1021.82
2019-03-19T11:49:00.198Z,1022.23
2019-03-19T11:50:00.391Z,1022.43
2019-03-19T11:51:00.177Z,1022.46
2019-03-19T11:52:00.179Z,1022.53
2019-03-19T11:53:00.158Z,1022.39
2019-03-19T11:54:00.145Z,1022.29
2019-03-19T11:55:00.271Z,1022.37
2019-03-19T11:56:00.134Z,1021.77
2019-03-19T11:57:00.154Z,1021.79
2019-03-19T11:58:00.100Z,1022.22
2019-03-19T11:59:00.090Z,1021.79
2019-03-19T12:00:10.533Z,1021.57
2019-03-19T12:01:01.071Z,1021.71
2019-03-19T12:02:00.089Z,1021.71
2019-03-19T12:03:10.863Z,1021.68
2019-03-19T12:04:01.041Z,1021.68
2019-03-19T12:05:00.038Z,1021.70